Time;durP1;ratioP1;P1;durP2;ratioP2;P2;SDS_P1;SDS_P2;PMS_P1;PMS_P2;Temp;Humidity;BMP_temperature;BMP_pressure;BME280_temperature;BME280_humidity;BME280_pressure;Samples;Min_cycle;Max_cycle;Signal;HPM_P1;HPM_P2
2022/11/09 00:01:24;;;;;;;8.98;8.32;;;;;;;;;;5016711;28;20025;-59
2022/11/09 00:03:56;;;;;;;9.38;8.75;;;;;;;;;;5017741;28;20044;-57
2022/11/09 00:06:23;;;;;;;9.55;8.85;;;;;;;;;;5017782;28;20018;-58
2022/11/09 00:08:48;;;;;;;10.20;9.50;;;;;;;;;;5003064;28;20037;-58
2022/11/09 00:11:14;;;;;;;10.05;9.32;;;;;;;;;;5015408;28;20477;-58
2022/11/09 00:13:41;;;;;;;10.18;9.50;;;;;;;;;;5016347;28;20100;-58
2022/11/09 00:16:08;;;;;;;10.10;9.35;;;;;;;;;;5016900;28;20033;-57
2022/11/09 00:18:35;;;;;;;10.75;10.05;;;;;;;;;;5017266;28;20486;-54
2022/11/09 00:21:08;;;;;;;11.45;10.75;;;;;;;;;;5015961;28;20031;-54
2022/11/09 00:23:34;;;;;;;12.68;11.77;;;;;;;;;;5012704;28;20542;-55
2022/11/09 00:26:04;;;;;;;13.27;12.38;;;;;;;;;;5015013;28;20036;-56
2022/11/09 00:28:30;;;;;;;11.45;10.75;;;;;;;;;;5015597;28;20030;-57
2022/11/09 00:31:00;;;;;;;12.63;11.85;;;;;;;;;;5014182;28;20095;-57
2022/11/09 00:33:25;;;;;;;12.48;11.68;;;;;;;;;;5017183;28;20045;-58
2022/11/09 00:35:51;;;;;;;12.05;11.32;;;;;;;;;;5015960;28;20036;-57
2022/11/09 00:38:16;;;;;;;13.27;12.35;;;;;;;;;;5017547;28;20029;-58
2022/11/09 00:40:42;;;;;;;11.55;10.85;;;;;;;;;;5019718;28;20034;-57
2022/11/09 00:43:08;;;;;;;11.50;10.80;;;;;;;;;;5016472;28;20109;-58
2022/11/09 00:45:33;;;;;;;11.10;10.40;;;;;;;;;;5017871;28;20035;-58
2022/11/09 00:47:59;;;;;;;12.60;11.88;;;;;;;;;;5016460;28;20447;-58
2022/11/09 00:50:24;;;;;;;11.15;10.45;;;;;;;;;;5017623;28;20419;-58
2022/11/09 00:52:50;;;;;;;11.70;10.90;;;;;;;;;;5018817;28;20064;-59
2022/11/09 00:55:15;;;;;;;10.43;9.80;;;;;;;;;;5017321;28;20115;-57
2022/11/09 00:57:41;;;;;;;12.65;11.70;;;;;;;;;;5017029;28;20037;-57
2022/11/09 01:00:07;;;;;;;12.52;11.75;;;;;;;;;;5016311;28;20104;-57
2022/11/09 01:02:32;;;;;;;12.15;11.35;;;;;;;;;;5016763;28;20052;-58
2022/11/09 01:04:58;;;;;;;13.45;12.65;;;;;;;;;;5014955;28;20034;-57
2022/11/09 01:07:24;;;;;;;12.52;11.75;;;;;;;;;;5015468;28;20033;-58
2022/11/09 01:09:50;;;;;;;13.77;12.77;;;;;;;;;;5017307;28;20363;-58
2022/11/09 01:12:15;;;;;;;13.70;12.80;;;;;;;;;;5012927;28;20026;-57
2022/11/09 01:14:41;;;;;;;16.52;12.45;;;;;;;;;;5015263;28;20026;-59
2022/11/09 01:17:06;;;;;;;12.90;12.10;;;;;;;;;;5016272;28;20048;-58
2022/11/09 01:19:31;;;;;;;13.85;13.05;;;;;;;;;;5010687;28;20651;-58
2022/11/09 01:21:57;;;;;;;13.65;12.85;;;;;;;;;;5015533;28;20021;-57
2022/11/09 01:24:22;;;;;;;12.93;12.15;;;;;;;;;;5016185;28;20033;-58
2022/11/09 01:26:48;;;;;;;14.02;13.13;;;;;;;;;;5016258;28;20439;-58
2022/11/09 01:29:13;;;;;;;13.43;12.63;;;;;;;;;;5014221;28;20439;-59
2022/11/09 01:31:39;;;;;;;13.68;12.88;;;;;;;;;;5015269;28;20034;-57
2022/11/09 01:34:04;;;;;;;12.18;11.48;;;;;;;;;;5015230;28;20026;-58
2022/11/09 01:36:30;;;;;;;12.45;11.73;;;;;;;;;;5014769;28;20130;-57
2022/11/09 01:38:55;;;;;;;14.45;13.65;;;;;;;;;;5013228;28;20079;-57
2022/11/09 01:41:24;;;;;;;13.73;12.93;;;;;;;;;;5013474;28;20108;-57
2022/11/09 01:44:09;;;;;;;15.23;14.32;;;;;;;;;;5022139;28;20041;-57
2022/11/09 01:46:40;;;;;;;15.60;14.70;;;;;;;;;;5012921;28;20018;-58
2022/11/09 01:49:12;;;;;;;14.60;13.60;;;;;;;;;;5014502;28;20061;-57
2022/11/09 01:51:42;;;;;;;14.00;13.20;;;;;;;;;;5015481;28;20048;-57
2022/11/09 01:54:14;;;;;;;13.63;12.73;;;;;;;;;;5014073;28;20083;-58
2022/11/09 01:56:40;;;;;;;15.73;14.73;;;;;;;;;;5017885;28;20029;-57
2022/11/09 01:59:12;;;;;;;14.90;14.02;;;;;;;;;;5014661;28;20087;-58
2022/11/09 02:01:39;;;;;;;14.27;13.48;;;;;;;;;;5012740;28;20036;-57
2022/11/09 02:04:09;;;;;;;15.07;14.15;;;;;;;;;;5015042;28;20040;-57
2022/11/09 02:06:35;;;;;;;16.42;15.45;;;;;;;;;;5014367;28;20215;-57
2022/11/09 02:09:26;;;;;;;17.58;16.60;;;;;;;;;;5014425;28;20044;-57
2022/11/09 02:11:52;;;;;;;13.98;13.13;;;;;;;;;;4992038;28;20478;-57
2022/11/09 02:14:21;;;;;;;14.85;13.85;;;;;;;;;;5012066;28;20478;-57
2022/11/09 02:16:47;;;;;;;14.52;13.70;;;;;;;;;;5013492;28;20044;-58
2022/11/09 02:19:12;;;;;;;15.50;14.50;;;;;;;;;;5013774;28;20364;-57
2022/11/09 02:21:38;;;;;;;16.90;15.70;;;;;;;;;;4997159;28;20085;-57
2022/11/09 02:24:04;;;;;;;14.55;13.65;;;;;;;;;;5013877;28;20034;-57
2022/11/09 02:26:37;;;;;;;15.20;14.15;;;;;;;;;;5016350;28;20151;-56
2022/11/09 02:29:07;;;;;;;14.82;13.93;;;;;;;;;;5013884;28;20044;-57
2022/11/09 02:31:37;;;;;;;14.23;13.43;;;;;;;;;;5015431;28;20621;-57
2022/11/09 02:34:08;;;;;;;15.30;14.20;;;;;;;;;;5012715;28;20087;-56
2022/11/09 02:36:33;;;;;;;15.95;14.82;;;;;;;;;;5017394;28;20111;-57
2022/11/09 02:38:59;;;;;;;14.25;13.43;;;;;;;;;;5018539;28;20025;-57
2022/11/09 02:41:26;;;;;;;13.35;12.55;;;;;;;;;;5015368;28;20034;-57
2022/11/09 02:43:53;;;;;;;13.85;13.02;;;;;;;;;;5012884;28;20060;-56
2022/11/09 02:46:25;;;;;;;13.90;13.10;;;;;;;;;;5014666;28;20034;-57
2022/11/09 02:48:50;;;;;;;13.75;12.95;;;;;;;;;;5014280;28;20029;-57
2022/11/09 02:51:16;;;;;;;14.93;13.63;;;;;;;;;;5014364;28;20033;-57
2022/11/09 02:53:41;;;;;;;13.90;13.02;;;;;;;;;;5012947;28;20531;-57
2022/11/09 02:56:06;;;;;;;13.48;12.68;;;;;;;;;;5012283;28;20021;-57
2022/11/09 02:58:32;;;;;;;15.32;14.45;;;;;;;;;;5014087;28;20025;-57
2022/11/09 03:00:57;;;;;;;14.20;13.40;;;;;;;;;;5008957;28;20036;-58
2022/11/09 03:03:23;;;;;;;12.88;12.13;;;;;;;;;;5016093;28;20052;-58
2022/11/09 03:05:48;;;;;;;13.23;12.43;;;;;;;;;;5014587;28;20111;-57
2022/11/09 03:08:13;;;;;;;14.52;13.70;;;;;;;;;;5012812;28;20129;-61
2022/11/09 03:10:39;;;;;;;14.32;13.52;;;;;;;;;;5013358;28;20518;-59
2022/11/09 03:13:04;;;;;;;13.60;12.80;;;;;;;;;;5015749;28;20466;-58
2022/11/09 03:15:30;;;;;;;13.07;12.30;;;;;;;;;;5013908;28;20032;-58
2022/11/09 03:17:55;;;;;;;14.45;13.35;;;;;;;;;;5014457;28;20038;-59
2022/11/09 03:20:21;;;;;;;13.57;12.77;;;;;;;;;;5015824;28;20490;-58
2022/11/09 03:22:46;;;;;;;13.35;12.55;;;;;;;;;;5012144;28;20065;-59
2022/11/09 03:25:12;;;;;;;12.10;11.40;;;;;;;;;;5012938;28;20057;-58
2022/11/09 03:27:37;;;;;;;13.18;12.38;;;;;;;;;;5011430;28;20029;-58
2022/11/09 03:30:03;;;;;;;11.80;11.10;;;;;;;;;;5012504;28;20451;-58
2022/11/09 03:32:28;;;;;;;11.85;11.15;;;;;;;;;;5009203;28;20048;-57
2022/11/09 03:34:54;;;;;;;12.85;12.10;;;;;;;;;;5010512;28;20037;-57
2022/11/09 03:37:19;;;;;;;11.80;11.10;;;;;;;;;;5014442;28;20499;-58
2022/11/09 03:39:44;;;;;;;11.13;10.43;;;;;;;;;;5014424;28;20030;-58
2022/11/09 03:42:10;;;;;;;12.48;11.77;;;;;;;;;;5012411;28;20017;-58
2022/11/09 03:44:35;;;;;;;12.98;12.18;;;;;;;;;;5011958;28;20037;-57
2022/11/09 03:47:01;;;;;;;12.65;11.85;;;;;;;;;;5016157;28;20079;-57
2022/11/09 03:49:26;;;;;;;12.15;11.45;;;;;;;;;;5009907;28;20087;-58
2022/11/09 03:51:51;;;;;;;12.32;11.63;;;;;;;;;;5013594;28;20817;-57
2022/11/09 03:54:17;;;;;;;12.48;11.77;;;;;;;;;;5013569;28;20041;-57
2022/11/09 03:56:42;;;;;;;11.82;11.13;;;;;;;;;;5011586;28;20052;-57
2022/11/09 03:59:08;;;;;;;12.25;11.55;;;;;;;;;;5012441;28;20026;-57
2022/11/09 04:01:33;;;;;;;12.98;12.18;;;;;;;;;;5013496;28;20045;-58
2022/11/09 04:03:59;;;;;;;12.32;11.63;;;;;;;;;;5012642;28;20034;-58
2022/11/09 04:06:24;;;;;;;11.40;10.70;;;;;;;;;;5015388;28;20519;-58
2022/11/09 04:08:50;;;;;;;12.57;11.77;;;;;;;;;;5012153;28;20099;-57
2022/11/09 04:11:15;;;;;;;12.13;11.43;;;;;;;;;;5011330;28;20026;-57
2022/11/09 04:13:41;;;;;;;11.30;10.60;;;;;;;;;;5014332;28;20451;-57
2022/11/09 04:16:07;;;;;;;12.15;11.40;;;;;;;;;;5014863;28;20036;-57
2022/11/09 04:18:32;;;;;;;12.15;11.45;;;;;;;;;;5013930;28;20033;-57
2022/11/09 04:20:58;;;;;;;12.55;11.75;;;;;;;;;;5012930;28;20065;-58
2022/11/09 04:23:23;;;;;;;13.60;12.73;;;;;;;;;;5011493;28;20034;-56
2022/11/09 04:25:49;;;;;;;13.55;12.75;;;;;;;;;;5011544;28;20030;-56
2022/11/09 04:28:14;;;;;;;12.35;11.60;;;;;;;;;;5011618;28;20475;-56
2022/11/09 04:30:40;;;;;;;12.73;11.93;;;;;;;;;;5009734;28;20637;-56
2022/11/09 04:33:05;;;;;;;12.10;11.40;;;;;;;;;;5013219;28;20045;-56
2022/11/09 04:35:32;;;;;;;12.48;11.68;;;;;;;;;;5012982;28;20041;-56
2022/11/09 04:38:02;;;;;;;12.73;11.93;;;;;;;;;;5016774;28;20059;-57
2022/11/09 04:40:30;;;;;;;13.20;12.38;;;;;;;;;;5013792;28;20085;-60
2022/11/09 04:42:59;;;;;;;12.73;11.93;;;;;;;;;;5013318;28;20045;-57
2022/11/09 04:45:24;;;;;;;13.00;12.20;;;;;;;;;;5013028;28;20092;-57
2022/11/09 04:47:50;;;;;;;12.77;11.77;;;;;;;;;;5014813;28;20034;-57
2022/11/09 04:50:15;;;;;;;12.25;11.45;;;;;;;;;;5012598;28;20038;-58
2022/11/09 04:52:41;;;;;;;12.95;11.82;;;;;;;;;;5013270;28;20037;-57
2022/11/09 04:55:07;;;;;;;12.80;12.00;;;;;;;;;;5017228;28;20068;-58
2022/11/09 04:57:33;;;;;;;12.57;11.77;;;;;;;;;;5015437;28;20029;-57
2022/11/09 04:59:58;;;;;;;12.55;11.75;;;;;;;;;;5014168;28;20080;-57
2022/11/09 05:02:23;;;;;;;13.00;12.10;;;;;;;;;;5015540;28;20093;-57
2022/11/09 05:04:49;;;;;;;11.90;11.20;;;;;;;;;;5015241;28;20185;-58
2022/11/09 05:07:15;;;;;;;11.93;11.23;;;;;;;;;;5015837;28;20030;-57
2022/11/09 05:09:40;;;;;;;12.88;12.10;;;;;;;;;;5015299;28;20026;-54
2022/11/09 05:12:06;;;;;;;13.18;12.23;;;;;;;;;;5016268;28;20034;-57
2022/11/09 05:14:31;;;;;;;13.05;12.25;;;;;;;;;;5016351;28;20029;-57
2022/11/09 05:16:57;;;;;;;12.35;11.57;;;;;;;;;;5016748;28;20112;-57
2022/11/09 05:19:22;;;;;;;11.45;10.75;;;;;;;;;;5014480;28;20029;-57
2022/11/09 05:21:47;;;;;;;12.85;11.85;;;;;;;;;;5013873;28;20025;-57
2022/11/09 05:24:13;;;;;;;13.73;12.88;;;;;;;;;;5015468;28;20030;-57
2022/11/09 05:26:40;;;;;;;13.23;12.43;;;;;;;;;;5015963;28;20089;-57
2022/11/09 05:29:09;;;;;;;12.63;11.82;;;;;;;;;;5010851;28;20029;-58
2022/11/09 05:31:36;;;;;;;12.15;11.35;;;;;;;;;;5009990;28;20363;-59
2022/11/09 05:34:02;;;;;;;12.68;11.88;;;;;;;;;;5013540;28;20029;-57
2022/11/09 05:36:29;;;;;;;12.88;12.13;;;;;;;;;;5014935;28;20040;-58
2022/11/09 05:38:56;;;;;;;12.40;11.70;;;;;;;;;;5012015;28;20057;-57
2022/11/09 05:41:21;;;;;;;13.05;12.23;;;;;;;;;;5013277;28;20459;-56
2022/11/09 05:43:47;;;;;;;11.90;11.20;;;;;;;;;;5013662;28;20033;-58
2022/11/09 05:46:13;;;;;;;13.43;12.57;;;;;;;;;;5013640;28;20061;-55
2022/11/09 05:48:40;;;;;;;12.35;11.60;;;;;;;;;;5013269;28;20483;-57
2022/11/09 05:51:08;;;;;;;13.57;12.70;;;;;;;;;;5014221;28;20619;-57
2022/11/09 05:53:33;;;;;;;13.40;12.40;;;;;;;;;;5013228;28;20026;-57
2022/11/09 05:56:09;;;;;;;14.70;13.60;;;;;;;;;;5016048;28;20025;-58
2022/11/09 05:58:37;;;;;;;13.18;12.32;;;;;;;;;;5012665;28;20038;-58
2022/11/09 06:01:09;;;;;;;12.35;11.45;;;;;;;;;;5013820;28;20041;-57
2022/11/09 06:03:35;;;;;;;12.68;11.80;;;;;;;;;;5014815;28;20065;-57
2022/11/09 06:06:06;;;;;;;13.05;12.18;;;;;;;;;;5014979;28;20036;-57
2022/11/09 06:08:31;;;;;;;13.88;12.98;;;;;;;;;;5012274;28;20026;-56
2022/11/09 06:11:02;;;;;;;14.35;13.45;;;;;;;;;;5012361;28;20037;-57
2022/11/09 06:13:28;;;;;;;14.27;13.32;;;;;;;;;;5014088;28;20061;-58
2022/11/09 06:15:59;;;;;;;13.77;12.88;;;;;;;;;;5014226;28;20037;-56
2022/11/09 06:18:26;;;;;;;13.50;12.68;;;;;;;;;;5015203;28;20037;-56
2022/11/09 06:20:56;;;;;;;13.98;13.07;;;;;;;;;;5015495;28;20041;-55
2022/11/09 06:23:25;;;;;;;12.13;11.43;;;;;;;;;;5012146;28;20030;-51
2022/11/09 06:26:05;;;;;;;11.82;11.07;;;;;;;;;;5012892;28;20208;-57
2022/11/09 06:28:31;;;;;;;13.23;12.23;;;;;;;;;;5015403;28;20021;-55
2022/11/09 06:30:58;;;;;;;13.73;12.82;;;;;;;;;;5014988;28;20471;-56
2022/11/09 06:33:24;;;;;;;14.10;13.20;;;;;;;;;;5012890;28;20084;-56
2022/11/09 06:35:49;;;;;;;14.82;13.88;;;;;;;;;;5016379;28;20113;-56
2022/11/09 06:38:15;;;;;;;13.18;12.38;;;;;;;;;;5012438;28;20033;-55
2022/11/09 06:40:40;;;;;;;13.65;12.75;;;;;;;;;;5013888;28;20467;-55
2022/11/09 06:43:06;;;;;;;12.52;11.73;;;;;;;;;;5017380;28;20064;-55
2022/11/09 06:45:32;;;;;;;12.68;11.93;;;;;;;;;;5012981;28;20030;-56
2022/11/09 06:47:59;;;;;;;12.85;12.05;;;;;;;;;;5016594;28;20041;-56
2022/11/09 06:50:26;;;;;;;11.57;10.88;;;;;;;;;;5010148;28;20120;-56
2022/11/09 06:52:56;;;;;;;12.88;12.02;;;;;;;;;;5009288;28;20040;-57
2022/11/09 06:55:21;;;;;;;12.52;11.63;;;;;;;;;;5010271;28;20026;-57
2022/11/09 06:57:47;;;;;;;12.00;11.30;;;;;;;;;;5012828;28;20037;-57
2022/11/09 07:00:13;;;;;;;12.68;11.88;;;;;;;;;;5011388;28;20084;-58
2022/11/09 07:02:38;;;;;;;12.02;11.23;;;;;;;;;;5014831;28;20048;-58
2022/11/09 07:05:04;;;;;;;11.98;11.27;;;;;;;;;;5014418;28;20030;-57
2022/11/09 07:07:30;;;;;;;13.85;12.45;;;;;;;;;;5009831;28;20531;-57
2022/11/09 07:09:57;;;;;;;11.90;11.15;;;;;;;;;;5015342;28;20044;-56
2022/11/09 07:12:22;;;;;;;11.23;10.52;;;;;;;;;;5013289;28;20116;-55
2022/11/09 07:14:48;;;;;;;11.48;10.77;;;;;;;;;;5012713;28;20144;-55
2022/11/09 07:17:13;;;;;;;10.68;9.98;;;;;;;;;;5013120;28;20109;-56
2022/11/09 07:19:39;;;;;;;11.20;10.50;;;;;;;;;;5011193;28;20361;-55
2022/11/09 07:22:04;;;;;;;11.27;10.52;;;;;;;;;;5011565;28;20379;-56
2022/11/09 07:24:30;;;;;;;11.10;10.40;;;;;;;;;;5013165;28;20123;-55
2022/11/09 07:26:55;;;;;;;12.88;12.10;;;;;;;;;;5014351;28;20041;-56
2022/11/09 07:29:21;;;;;;;11.30;10.45;;;;;;;;;;5012638;28;20037;-56
2022/11/09 07:31:46;;;;;;;11.25;10.55;;;;;;;;;;5008063;28;20459;-57
2022/11/09 07:34:12;;;;;;;10.95;10.25;;;;;;;;;;5012842;28;20033;-57
2022/11/09 07:36:37;;;;;;;11.15;10.32;;;;;;;;;;5017980;28;20519;-59
2022/11/09 07:39:03;;;;;;;11.18;10.48;;;;;;;;;;5011878;28;20025;-58
2022/11/09 07:41:28;;;;;;;11.07;10.38;;;;;;;;;;5014645;28;20033;-56
2022/11/09 07:43:54;;;;;;;10.15;9.55;;;;;;;;;;5011680;28;20400;-57
2022/11/09 07:46:19;;;;;;;10.50;9.88;;;;;;;;;;5010220;28;20133;-58
2022/11/09 07:48:44;;;;;;;11.10;10.40;;;;;;;;;;5012772;28;20025;-56
2022/11/09 07:51:10;;;;;;;11.05;10.35;;;;;;;;;;5011648;28;20025;-57
2022/11/09 07:53:35;;;;;;;10.85;10.18;;;;;;;;;;5008442;28;20028;-58
2022/11/09 07:56:02;;;;;;;10.40;9.80;;;;;;;;;;5009638;28;20034;-57
2022/11/09 07:58:28;;;;;;;11.20;10.50;;;;;;;;;;5011054;28;20643;-58
2022/11/09 08:00:54;;;;;;;10.63;9.93;;;;;;;;;;5011151;28;20048;-59
2022/11/09 08:03:23;;;;;;;11.27;10.52;;;;;;;;;;5013366;28;20029;-59
2022/11/09 08:05:50;;;;;;;10.13;9.52;;;;;;;;;;5011442;28;20048;-58
2022/11/09 08:08:16;;;;;;;10.15;9.55;;;;;;;;;;5014463;28;20029;-58
2022/11/09 08:10:43;;;;;;;11.50;10.70;;;;;;;;;;5014093;28;20059;-58
2022/11/09 08:13:13;;;;;;;11.25;10.55;;;;;;;;;;5014681;28;20057;-57
2022/11/09 08:15:39;;;;;;;10.55;9.90;;;;;;;;;;5017926;28;20430;-57
2022/11/09 08:18:09;;;;;;;10.75;10.05;;;;;;;;;;5014945;28;20758;-58
2022/11/09 08:20:34;;;;;;;11.38;10.63;;;;;;;;;;5013431;28;20034;-56
2022/11/09 08:23:00;;;;;;;11.00;10.23;;;;;;;;;;5000284;28;20042;-58
2022/11/09 08:25:25;;;;;;;11.95;11.15;;;;;;;;;;5014350;28;20422;-58
2022/11/09 08:27:51;;;;;;;11.15;10.45;;;;;;;;;;5021395;28;20052;-57
2022/11/09 08:30:19;;;;;;;11.52;10.82;;;;;;;;;;5014504;28;20057;-58
2022/11/09 08:32:46;;;;;;;9.98;9.38;;;;;;;;;;5012900;28;20076;-57
2022/11/09 08:35:16;;;;;;;11.00;10.30;;;;;;;;;;5016246;28;20037;-58
2022/11/09 08:37:43;;;;;;;11.18;10.48;;;;;;;;;;5014359;28;20038;-58
2022/11/09 08:40:09;;;;;;;11.07;10.38;;;;;;;;;;5013443;28;20128;-58
2022/11/09 08:42:35;;;;;;;10.82;10.13;;;;;;;;;;5012570;28;20447;-57
2022/11/09 08:45:00;;;;;;;11.10;10.30;;;;;;;;;;5011849;28;20046;-59
2022/11/09 08:47:27;;;;;;;10.95;10.25;;;;;;;;;;5011894;28;20037;-56
2022/11/09 08:49:52;;;;;;;10.43;9.82;;;;;;;;;;5016168;28;20459;-58
2022/11/09 08:52:18;;;;;;;11.07;10.38;;;;;;;;;;5013850;28;20040;-59
2022/11/09 08:54:44;;;;;;;10.18;9.57;;;;;;;;;;5009527;28;20052;-58
2022/11/09 08:57:09;;;;;;;10.52;9.82;;;;;;;;;;5011306;28;20120;-57
2022/11/09 08:59:35;;;;;;;9.75;9.15;;;;;;;;;;5015346;28;20610;-59
2022/11/09 09:02:00;;;;;;;10.55;9.85;;;;;;;;;;5013336;28;20045;-59
2022/11/09 09:04:26;;;;;;;9.82;9.23;;;;;;;;;;5016137;28;20464;-59
2022/11/09 09:06:52;;;;;;;10.77;10.07;;;;;;;;;;5016518;28;20037;-59
2022/11/09 09:09:18;;;;;;;10.68;10.00;;;;;;;;;;5013008;28;20127;-59
2022/11/09 09:11:43;;;;;;;9.52;8.93;;;;;;;;;;5014904;28;20044;-58
2022/11/09 09:14:09;;;;;;;10.98;10.27;;;;;;;;;;5013030;28;20052;-60
2022/11/09 09:16:34;;;;;;;11.23;10.50;;;;;;;;;;5015657;28;20060;-58
2022/11/09 09:18:59;;;;;;;11.38;10.63;;;;;;;;;;5013217;28;20037;-59
2022/11/09 09:21:25;;;;;;;11.10;10.40;;;;;;;;;;5015981;28;20302;-59
2022/11/09 09:23:50;;;;;;;11.57;10.88;;;;;;;;;;5013347;28;20026;-58
2022/11/09 09:26:16;;;;;;;10.80;10.10;;;;;;;;;;5013247;28;20049;-58
2022/11/09 09:28:42;;;;;;;11.50;10.80;;;;;;;;;;5014103;28;20243;-58
2022/11/09 09:31:08;;;;;;;11.70;11.00;;;;;;;;;;5014729;28;20048;-59
2022/11/09 09:33:34;;;;;;;11.60;10.90;;;;;;;;;;5012736;28;20083;-59
2022/11/09 09:35:59;;;;;;;14.63;13.73;;;;;;;;;;5016478;28;20132;-59
2022/11/09 09:38:26;;;;;;;13.18;12.38;;;;;;;;;;5013872;28;20030;-59
2022/11/09 09:41:03;;;;;;;14.00;13.20;;;;;;;;;;5019739;28;20101;-59
2022/11/09 09:43:42;;;;;;;15.05;13.93;;;;;;;;;;5012629;28;20439;-63
2022/11/09 09:46:39;;;;;;;15.82;14.93;;;;;;;;;;5011294;28;20029;-58
2022/11/09 09:49:10;;;;;;;13.90;13.10;;;;;;;;;;5011406;28;20091;-59
2022/11/09 09:51:48;;;;;;;14.63;13.82;;;;;;;;;;5009974;28;20037;-60
2022/11/09 09:54:22;;;;;;;16.15;15.25;;;;;;;;;;5013202;28;20030;-58
2022/11/09 09:56:51;;;;;;;15.55;14.65;;;;;;;;;;5013087;28;20550;-58
2022/11/09 09:59:23;;;;;;;17.83;16.83;;;;;;;;;;5014265;28;20054;-58
2022/11/09 10:01:49;;;;;;;16.08;15.18;;;;;;;;;;5012710;28;20073;-59
2022/11/09 10:04:27;;;;;;;18.58;17.58;;;;;;;;;;5015679;28;20030;-58
2022/11/09 10:07:06;;;;;;;18.38;17.38;;;;;;;;;;5011562;28;20422;-59
2022/11/09 10:09:40;;;;;;;18.17;17.08;;;;;;;;;;5014890;28;20284;-58
2022/11/09 10:12:37;;;;;;;16.05;15.15;;;;;;;;;;5008850;28;20029;-60
2022/11/09 10:15:12;;;;;;;15.25;14.38;;;;;;;;;;4985921;28;20420;-58
2022/11/09 10:18:03;;;;;;;18.25;17.25;;;;;;;;;;5014288;28;20032;-58
2022/11/09 10:20:35;;;;;;;17.15;16.15;;;;;;;;;;5015196;28;20065;-60
2022/11/09 10:23:18;;;;;;;17.05;16.10;;;;;;;;;;5015565;28;20040;-59
2022/11/09 10:25:46;;;;;;;15.73;14.82;;;;;;;;;;5012713;28;20171;-59
2022/11/09 10:28:16;;;;;;;16.13;15.23;;;;;;;;;;5011411;28;20397;-59
2022/11/09 10:30:42;;;;;;;16.45;15.25;;;;;;;;;;5012346;28;20065;-60
2022/11/09 10:33:10;;;;;;;15.20;14.32;;;;;;;;;;5013276;28;20661;-60
2022/11/09 10:35:53;;;;;;;16.45;15.55;;;;;;;;;;5013173;28;20459;-59
2022/11/09 10:38:29;;;;;;;15.25;14.35;;;;;;;;;;5013584;28;20038;-59
2022/11/09 10:41:00;;;;;;;13.98;13.18;;;;;;;;;;5008803;28;20499;-59
2022/11/09 10:43:25;;;;;;;16.52;15.63;;;;;;;;;;5011985;28;20053;-58
2022/11/09 10:46:05;;;;;;;14.00;13.20;;;;;;;;;;5014156;28;20640;-57
2022/11/09 10:48:37;;;;;;;14.55;13.73;;;;;;;;;;5012036;28;20079;-55
2022/11/09 10:51:03;;;;;;;13.07;12.30;;;;;;;;;;5012769;28;20034;-57
2022/11/09 10:53:32;;;;;;;12.05;11.32;;;;;;;;;;5015925;28;20059;-57
2022/11/09 10:56:11;;;;;;;12.30;11.60;;;;;;;;;;5010985;28;20036;-58
2022/11/09 10:58:46;;;;;;;11.45;10.75;;;;;;;;;;5010137;28;20064;-58
2022/11/09 11:01:16;;;;;;;10.95;10.25;;;;;;;;;;5013933;28;20064;-58
2022/11/09 11:03:43;;;;;;;12.00;11.25;;;;;;;;;;5012405;28;20371;-59
2022/11/09 11:06:25;;;;;;;10.13;9.52;;;;;;;;;;5013842;28;20037;-58
2022/11/09 11:08:56;;;;;;;9.80;9.05;;;;;;;;;;5012885;28;20366;-58
2022/11/09 11:11:23;;;;;;;10.10;9.50;;;;;;;;;;5011477;28;20032;-59
2022/11/09 11:13:57;;;;;;;10.40;9.80;;;;;;;;;;5011957;28;20034;-57
2022/11/09 11:16:27;;;;;;;9.98;9.38;;;;;;;;;;5011906;28;20108;-58
2022/11/09 11:18:53;;;;;;;9.95;9.15;;;;;;;;;;5014270;28;20022;-58
2022/11/09 11:21:22;;;;;;;9.40;8.80;;;;;;;;;;5011030;28;20061;-59
2022/11/09 11:24:12;;;;;;;9.57;8.98;;;;;;;;;;5012995;28;20068;-58
2022/11/09 11:26:46;;;;;;;9.20;8.60;;;;;;;;;;5013068;28;20519;-58
2022/11/09 11:29:20;;;;;;;9.00;8.40;;;;;;;;;;5013946;28;20609;-58
2022/11/09 11:31:45;;;;;;;9.77;9.18;;;;;;;;;;5015903;28;20140;-58
2022/11/09 11:34:13;;;;;;;9.43;8.68;;;;;;;;;;5013115;28;20100;-58
2022/11/09 11:36:57;;;;;;;10.38;9.68;;;;;;;;;;5013050;28;20065;-58
2022/11/09 11:39:39;;;;;;;10.20;9.13;;;;;;;;;;5014025;28;20176;-58
2022/11/09 11:42:38;;;;;;;10.10;9.50;;;;;;;;;;5015064;28;20372;-58
2022/11/09 11:45:21;;;;;;;11.32;10.63;;;;;;;;;;5009925;28;20038;-57
2022/11/09 11:48:20;;;;;;;11.52;10.73;;;;;;;;;;5016542;28;20116;-58
2022/11/09 11:51:03;;;;;;;10.05;9.45;;;;;;;;;;5014216;28;20412;-58
2022/11/09 11:53:50;;;;;;;10.63;9.98;;;;;;;;;;5015371;28;20057;-58
2022/11/09 11:56:24;;;;;;;10.05;9.45;;;;;;;;;;5016073;28;20037;-58
2022/11/09 11:59:27;;;;;;;8.85;8.25;;;;;;;;;;5014922;28;20496;-58
2022/11/09 12:02:00;;;;;;;9.25;8.65;;;;;;;;;;5014723;28;20052;-58
2022/11/09 12:04:43;;;;;;;8.75;8.23;;;;;;;;;;5016130;28;20034;-58
2022/11/09 12:07:12;;;;;;;9.93;9.32;;;;;;;;;;5016148;28;20017;-58
2022/11/09 12:09:50;;;;;;;9.88;9.27;;;;;;;;;;5030582;28;20095;-57
2022/11/09 12:12:42;;;;;;;9.35;8.75;;;;;;;;;;5013017;28;20044;-57
2022/11/09 12:15:13;;;;;;;9.20;8.60;;;;;;;;;;5016906;28;20549;-57
2022/11/09 12:17:51;;;;;;;9.10;8.50;;;;;;;;;;5015576;28;20033;-58
2022/11/09 12:20:28;;;;;;;9.45;8.85;;;;;;;;;;5013974;28;20029;-56
2022/11/09 12:23:09;;;;;;;13.70;12.90;;;;;;;;;;5021040;28;20410;-58
2022/11/09 12:25:57;;;;;;;15.45;14.55;;;;;;;;;;5015915;28;20118;-57
2022/11/09 12:29:06;;;;;;;22.40;21.20;;;;;;;;;;5013570;28;20030;-57
2022/11/09 12:32:03;;;;;;;18.25;17.25;;;;;;;;;;5015370;28;20022;-57
2022/11/09 12:34:36;;;;;;;22.15;20.95;;;;;;;;;;4988004;28;20653;-58
2022/11/09 12:37:08;;;;;;;22.52;21.33;;;;;;;;;;5012928;28;20026;-58
2022/11/09 12:39:45;;;;;;;22.77;21.52;;;;;;;;;;5015246;28;20570;-57
2022/11/09 12:42:32;;;;;;;21.75;20.60;;;;;;;;;;5016400;28;20037;-58
2022/11/09 12:45:26;;;;;;;23.17;21.88;;;;;;;;;;5013539;28;20123;-58
2022/11/09 12:47:54;;;;;;;21.77;20.58;;;;;;;;;;5015398;28;20037;-58
2022/11/09 12:50:24;;;;;;;23.48;22.23;;;;;;;;;;5016454;28;20585;-57
2022/11/09 12:52:53;;;;;;;23.00;21.75;;;;;;;;;;5012480;28;20116;-57
2022/11/09 12:55:38;;;;;;;23.20;21.92;;;;;;;;;;5015290;28;20125;-58
2022/11/09 12:58:04;;;;;;;23.67;22.38;;;;;;;;;;5017513;28;20501;-58
2022/11/09 13:00:33;;;;;;;19.73;18.63;;;;;;;;;;5014112;28;20463;-58
2022/11/09 13:03:02;;;;;;;18.42;17.42;;;;;;;;;;5015494;28;20064;-58
2022/11/09 13:05:37;;;;;;;19.23;18.13;;;;;;;;;;5015582;28;20474;-58
2022/11/09 13:08:14;;;;;;;16.70;15.80;;;;;;;;;;5013531;28;20025;-57
2022/11/09 13:10:40;;;;;;;14.48;13.68;;;;;;;;;;5015091;28;20098;-57
2022/11/09 13:13:11;;;;;;;15.23;14.35;;;;;;;;;;5015750;28;20037;-57
2022/11/09 13:15:38;;;;;;;14.55;13.75;;;;;;;;;;5014500;28;20044;-58
2022/11/09 13:18:22;;;;;;;17.05;16.13;;;;;;;;;;5014726;28;20045;-58
2022/11/09 13:20:49;;;;;;;16.20;15.30;;;;;;;;;;5019952;28;20411;-58
2022/11/09 13:23:36;;;;;;;15.82;14.93;;;;;;;;;;5015136;28;20083;-58
2022/11/09 13:26:02;;;;;;;13.80;13.00;;;;;;;;;;5015172;28;20031;-58
2022/11/09 13:28:30;;;;;;;16.02;15.13;;;;;;;;;;5012072;28;20581;-59
2022/11/09 13:30:59;;;;;;;15.88;14.98;;;;;;;;;;5013576;28;20054;-59
2022/11/09 13:33:31;;;;;;;17.45;16.45;;;;;;;;;;5014461;28;20030;-58
2022/11/09 13:36:07;;;;;;;14.65;13.85;;;;;;;;;;5015923;28;20085;-59
2022/11/09 13:38:34;;;;;;;12.35;11.65;;;;;;;;;;5014611;28;20036;-58
2022/11/09 13:41:02;;;;;;;12.40;11.70;;;;;;;;;;5013928;28;20044;-58
2022/11/09 13:43:30;;;;;;;14.07;13.18;;;;;;;;;;5015425;28;20018;-58
2022/11/09 13:45:56;;;;;;;11.45;10.75;;;;;;;;;;5014335;28;20667;-60
2022/11/09 13:48:33;;;;;;;12.38;11.68;;;;;;;;;;5011442;28;20116;-59
2022/11/09 13:51:02;;;;;;;11.55;10.85;;;;;;;;;;5012182;28;20037;-59
2022/11/09 13:53:37;;;;;;;10.57;9.93;;;;;;;;;;5012971;28;20036;-58
2022/11/09 13:56:31;;;;;;;10.88;10.13;;;;;;;;;;5013240;28;20025;-58
2022/11/09 13:59:06;;;;;;;9.88;9.27;;;;;;;;;;5011330;28;20033;-58
2022/11/09 14:01:34;;;;;;;9.23;8.63;;;;;;;;;;5011209;28;20094;-61
2022/11/09 14:04:00;;;;;;;9.73;9.13;;;;;;;;;;5013393;28;20378;-59
2022/11/09 14:06:28;;;;;;;9.20;8.60;;;;;;;;;;5013139;28;20538;-58
2022/11/09 14:08:55;;;;;;;8.70;8.10;;;;;;;;;;5014414;28;20033;-59
2022/11/09 14:12:01;;;;;;;9.20;8.60;;;;;;;;;;5013202;28;20033;-59
2022/11/09 14:14:57;;;;;;;10.25;9.55;;;;;;;;;;5012189;28;20231;-59
2022/11/09 14:17:34;;;;;;;10.52;9.82;;;;;;;;;;5011767;28;20073;-58
2022/11/09 14:20:21;;;;;;;10.10;9.50;;;;;;;;;;5011333;28;20033;-58
2022/11/09 14:22:47;;;;;;;9.30;8.70;;;;;;;;;;5012577;28;20041;-58
2022/11/09 14:25:18;;;;;;;10.00;9.40;;;;;;;;;;5013620;28;20033;-58
2022/11/09 14:27:49;;;;;;;;;;;;;;;;;;5013124;28;20352;-57
2022/11/09 14:30:23;;;;;;;11.63;10.85;;;;;;;;;;5013431;28;19960;-58
2022/11/09 14:32:52;;;;;;;12.50;11.80;;;;;;;;;;5009422;28;20371;-58
2022/11/09 14:35:21;;;;;;;14.75;13.93;;;;;;;;;;5013115;28;20329;-58